Time;durP1;ratioP1;P1;durP2;ratioP2;P2;SDS_P1;SDS_P2;PMS_P1;PMS_P2;Temp;Humidity;BMP_temperature;BMP_pressure;BME280_temperature;BME280_humidity;BME280_pressure;Samples;Min_cycle;Max_cycle;Signal;HPM_P1;HPM_P2
2023/11/09 00:00:21;;;;;;;2.70;1.40;;;10.60;99.90;;;;;;5035055;28;20033;-76
2023/11/09 00:02:46;;;;;;;3.17;1.30;;;10.60;99.90;;;;;;5032244;28;20026;-75
2023/11/09 00:05:12;;;;;;;2.88;1.30;;;10.60;99.90;;;;;;5040427;28;20017;-75
2023/11/09 00:07:38;;;;;;;2.88;1.48;;;10.60;99.90;;;;;;5039947;28;20029;-76
2023/11/09 00:10:06;;;;;;;3.30;1.45;;;10.60;99.90;;;;;;5033722;28;20024;-75
2023/11/09 00:12:32;;;;;;;2.97;1.30;;;10.60;99.90;;;;;;5035963;28;20026;-75
2023/11/09 00:14:59;;;;;;;3.58;1.48;;;10.60;99.90;;;;;;5041685;28;20022;-75
2023/11/09 00:17:24;;;;;;;2.80;1.60;;;10.70;99.90;;;;;;5036870;28;20017;-76
2023/11/09 00:19:50;;;;;;;4.20;1.33;;;10.60;99.90;;;;;;5033534;28;20600;-76
2023/11/09 00:22:16;;;;;;;2.83;1.60;;;10.70;99.90;;;;;;5039921;28;20036;-75
2023/11/09 00:24:42;;;;;;;4.18;1.85;;;10.60;99.90;;;;;;5040865;28;20028;-76
2023/11/09 00:27:16;;;;;;;2.10;1.20;;;10.60;99.90;;;;;;5027535;28;20025;-76
2023/11/09 00:29:41;;;;;;;3.72;1.48;;;10.60;99.90;;;;;;5039528;28;20024;-75
2023/11/09 00:32:07;;;;;;;3.13;1.35;;;10.60;99.90;;;;;;5032923;28;20013;-75
2023/11/09 00:34:32;;;;;;;3.83;1.50;;;10.60;99.90;;;;;;5036987;28;20056;-75
2023/11/09 00:37:00;;;;;;;2.72;1.45;;;10.60;99.90;;;;;;5039541;28;20024;-75
2023/11/09 00:39:26;;;;;;;2.63;1.50;;;10.60;99.90;;;;;;5036006;28;20031;-76
2023/11/09 00:41:51;;;;;;;4.57;1.70;;;10.60;99.90;;;;;;5032688;28;20029;-76
2023/11/09 00:44:17;;;;;;;3.28;1.60;;;10.60;99.90;;;;;;5040650;28;20013;-75
2023/11/09 00:46:43;;;;;;;2.80;1.90;;;10.60;99.90;;;;;;5039365;28;20059;-76
2023/11/09 00:49:08;;;;;;;3.03;1.90;;;10.60;99.90;;;;;;5032799;28;20021;-76
2023/11/09 00:51:34;;;;;;;4.72;2.00;;;10.60;99.90;;;;;;5036234;28;20028;-76
2023/11/09 00:54:00;;;;;;;2.40;2.00;;;10.60;99.90;;;;;;5037115;28;20025;-76
2023/11/09 00:56:25;;;;;;;3.53;1.90;;;10.60;99.90;;;;;;5038470;28;20037;-76
2023/11/09 00:58:51;;;;;;;4.05;1.73;;;10.60;99.90;;;;;;5040619;28;20044;-76
2023/11/09 01:01:17;;;;;;;4.32;1.90;;;10.60;99.90;;;;;;5030793;28;20021;-75
2023/11/09 01:03:42;;;;;;;3.70;1.67;;;10.60;99.90;;;;;;5035188;28;20470;-75
2023/11/09 01:06:08;;;;;;;3.45;2.10;;;10.60;99.90;;;;;;5032627;28;20418;-75
2023/11/09 01:08:33;;;;;;;5.38;1.70;;;10.60;99.90;;;;;;5040337;28;20029;-76
2023/11/09 01:11:05;;;;;;;2.00;1.77;;;10.60;99.90;;;;;;5039155;28;20060;-76
2023/11/09 01:13:32;;;;;;;3.75;1.90;;;10.60;99.90;;;;;;5032265;28;20066;-76
2023/11/09 01:15:59;;;;;;;5.63;2.30;;;10.60;99.90;;;;;;5034948;28;20380;-76
2023/11/09 01:18:25;;;;;;;2.80;1.90;;;10.60;99.90;;;;;;5040074;28;20056;-76
2023/11/09 01:20:50;;;;;;;3.55;2.05;;;10.60;99.90;;;;;;5035082;28;20029;-75
2023/11/09 01:23:18;;;;;;;3.40;1.92;;;10.60;99.90;;;;;;5031999;28;20037;-75
2023/11/09 01:25:43;;;;;;;4.10;1.92;;;10.60;99.90;;;;;;5038975;28;20033;-76
2023/11/09 01:28:09;;;;;;;2.85;1.80;;;10.60;99.90;;;;;;5039749;28;20082;-75
2023/11/09 01:30:34;;;;;;;2.60;1.95;;;10.60;99.90;;;;;;5032100;28;20016;-75
2023/11/09 01:33:00;;;;;;;5.70;2.10;;;10.60;99.90;;;;;;5034652;28;20017;-76
2023/11/09 01:35:26;;;;;;;4.38;1.83;;;10.60;99.90;;;;;;5030103;28;20611;-76
2023/11/09 01:37:51;;;;;;;2.35;1.70;;;10.60;99.90;;;;;;5035181;28;20028;-75
2023/11/09 01:40:18;;;;;;;5.68;1.92;;;10.60;99.90;;;;;;5040899;28;20115;-75
2023/11/09 01:42:44;;;;;;;4.10;1.85;;;10.60;99.90;;;;;;5033995;28;20032;-75
2023/11/09 01:45:10;;;;;;;5.22;2.03;;;10.60;99.90;;;;;;5032768;28;20623;-75
2023/11/09 01:47:36;;;;;;;5.50;2.20;;;10.60;99.90;;;;;;5038419;28;20033;-75
2023/11/09 01:50:05;;;;;;;3.65;1.90;;;10.60;99.90;;;;;;5038230;28;20596;-74
2023/11/09 01:52:32;;;;;;;2.58;1.70;;;10.60;99.90;;;;;;5022123;28;20523;-74
2023/11/09 01:54:58;;;;;;;2.25;1.58;;;10.60;99.90;;;;;;5035117;28;20021;-74
2023/11/09 01:57:25;;;;;;;3.65;1.90;;;10.60;99.90;;;;;;5031745;28;20021;-74
2023/11/09 01:59:53;;;;;;;3.65;1.80;;;10.60;99.90;;;;;;5037995;28;20026;-74
2023/11/09 02:02:20;;;;;;;3.85;2.00;;;10.60;99.90;;;;;;5029486;28;20021;-75
2023/11/09 02:04:46;;;;;;;2.88;1.80;;;10.60;99.90;;;;;;5040460;28;20010;-75
2023/11/09 02:07:12;;;;;;;2.63;1.60;;;10.60;99.90;;;;;;5035374;28;20025;-74
2023/11/09 02:09:38;;;;;;;2.08;1.60;;;10.60;99.90;;;;;;5031178;28;20032;-75
2023/11/09 02:12:06;;;;;;;1.92;1.48;;;10.60;99.90;;;;;;5038749;28;20045;-75
2023/11/09 02:14:32;;;;;;;1.65;1.50;;;10.60;99.90;;;;;;5039476;28;20024;-75
2023/11/09 02:16:58;;;;;;;2.63;1.70;;;10.60;99.90;;;;;;5030443;28;20477;-76
2023/11/09 02:19:28;;;;;;;2.35;1.63;;;10.60;99.90;;;;;;5032903;28;20033;-75
2023/11/09 02:21:55;;;;;;;2.83;1.92;;;10.60;99.90;;;;;;5040133;28;20192;-75
2023/11/09 02:24:22;;;;;;;3.65;1.80;;;10.60;99.90;;;;;;5036241;28;20525;-74
2023/11/09 02:26:48;;;;;;;5.05;1.80;;;10.60;99.90;;;;;;5031843;28;20388;-74
2023/11/09 02:29:15;;;;;;;3.70;1.90;;;10.60;99.90;;;;;;5040178;28;20509;-75
2023/11/09 02:31:43;;;;;;;2.88;1.90;;;10.60;99.90;;;;;;5043193;28;20484;-76
2023/11/09 02:34:09;;;;;;;3.63;2.00;;;10.60;99.90;;;;;;5029444;28;20049;-75
2023/11/09 02:36:35;;;;;;;3.20;1.80;;;10.60;99.90;;;;;;5042617;28;20511;-75
2023/11/09 02:39:02;;;;;;;2.58;1.95;;;10.70;99.90;;;;;;5035363;28;20021;-75
2023/11/09 02:41:27;;;;;;;2.97;1.90;;;10.70;99.90;;;;;;5038110;28;20033;-75
2023/11/09 02:43:53;;;;;;;4.47;2.28;;;10.60;99.90;;;;;;5043024;28;20018;-75
2023/11/09 02:46:19;;;;;;;3.55;1.98;;;10.60;99.90;;;;;;5037066;28;20020;-75
2023/11/09 02:48:46;;;;;;;3.03;1.92;;;10.70;99.90;;;;;;5035040;28;20026;-76
2023/11/09 02:51:12;;;;;;;3.88;2.20;;;10.70;99.90;;;;;;5042063;28;20045;-75
2023/11/09 02:53:39;;;;;;;4.43;2.28;;;10.70;99.90;;;;;;5036695;28;20072;-75
2023/11/09 02:56:05;;;;;;;5.38;2.20;;;10.70;99.90;;;;;;5041869;28;20049;-75
2023/11/09 02:58:33;;;;;;;3.75;2.28;;;10.70;99.90;;;;;;5040155;28;20394;-75
2023/11/09 03:00:58;;;;;;;3.20;2.05;;;10.70;99.90;;;;;;5034978;28;20028;-75
2023/11/09 03:03:24;;;;;;;4.70;2.45;;;10.70;99.90;;;;;;5034595;28;20027;-75
2023/11/09 03:05:52;;;;;;;3.78;2.33;;;10.70;99.90;;;;;;5035459;28;20029;-75
2023/11/09 03:08:19;;;;;;;4.65;2.70;;;10.70;99.90;;;;;;5042363;28;20022;-75
2023/11/09 03:10:45;;;;;;;5.00;2.63;;;10.70;99.90;;;;;;5037766;28;20124;-75
2023/11/09 03:13:11;;;;;;;3.35;2.47;;;10.70;99.90;;;;;;5034257;28;20108;-76
2023/11/09 03:15:37;;;;;;;4.13;2.90;;;10.70;99.90;;;;;;5038430;28;20021;-76
2023/11/09 03:18:03;;;;;;;6.20;2.60;;;10.70;99.90;;;;;;5042219;28;20031;-76
2023/11/09 03:20:29;;;;;;;5.95;2.88;;;10.70;99.90;;;;;;5035104;28;20017;-75
2023/11/09 03:22:54;;;;;;;3.72;2.70;;;10.80;99.90;;;;;;5035973;28;20033;-75
2023/11/09 03:25:20;;;;;;;3.50;2.80;;;10.70;99.90;;;;;;5042409;28;20611;-75
2023/11/09 03:27:47;;;;;;;4.60;3.10;;;10.80;99.90;;;;;;5038745;28;20029;-76
2023/11/09 03:30:12;;;;;;;3.97;2.97;;;10.80;99.90;;;;;;5034392;28;20107;-76
2023/11/09 03:32:38;;;;;;;3.53;2.85;;;10.80;99.90;;;;;;5039352;28;20619;-75
2023/11/09 03:35:04;;;;;;;4.20;3.25;;;10.80;99.90;;;;;;5042570;28;20017;-75
2023/11/09 03:37:30;;;;;;;4.82;2.88;;;10.80;99.90;;;;;;5034306;28;20024;-75
2023/11/09 03:39:56;;;;;;;5.68;3.30;;;10.80;99.90;;;;;;5034701;28;20083;-74
2023/11/09 03:42:23;;;;;;;4.65;3.10;;;10.80;99.90;;;;;;5032287;28;20048;-75
2023/11/09 03:44:48;;;;;;;6.82;3.53;;;10.80;99.90;;;;;;5035966;28;20060;-75
2023/11/09 03:47:15;;;;;;;3.92;3.00;;;10.80;99.90;;;;;;5029277;28;20021;-75
2023/11/09 03:49:41;;;;;;;5.57;3.60;;;10.80;99.90;;;;;;5038977;28;20056;-74
2023/11/09 03:52:07;;;;;;;5.57;3.60;;;10.80;99.90;;;;;;5041994;28;20025;-75
2023/11/09 03:54:33;;;;;;;4.97;3.78;;;10.80;99.90;;;;;;5033110;28;20027;-75
2023/11/09 03:56:58;;;;;;;6.03;3.90;;;10.80;99.90;;;;;;5034879;28;20034;-75
2023/11/09 03:59:24;;;;;;;5.43;3.72;;;10.90;99.90;;;;;;5040247;28;20051;-75
2023/11/09 04:01:50;;;;;;;6.00;4.15;;;10.90;99.90;;;;;;5031582;28;20087;-75
2023/11/09 04:04:15;;;;;;;5.63;4.10;;;10.90;99.90;;;;;;5040673;28;20094;-75
2023/11/09 04:06:42;;;;;;;5.28;4.22;;;10.90;99.90;;;;;;5033822;28;20025;-75
2023/11/09 04:09:09;;;;;;;5.90;4.60;;;10.90;99.90;;;;;;5036548;28;20137;-75
2023/11/09 04:11:35;;;;;;;6.40;4.90;;;10.90;99.90;;;;;;5041438;28;20037;-75
2023/11/09 04:14:02;;;;;;;6.20;4.57;;;10.90;99.90;;;;;;5036830;28;20032;-75
2023/11/09 04:16:28;;;;;;;6.28;4.43;;;10.90;99.90;;;;;;5030522;28;20122;-75
2023/11/09 04:18:54;;;;;;;7.18;4.72;;;10.90;99.90;;;;;;5028391;28;20116;-75
2023/11/09 04:21:19;;;;;;;6.82;4.75;;;10.90;99.90;;;;;;5039668;28;20394;-75
2023/11/09 04:23:45;;;;;;;8.23;5.35;;;11.00;99.90;;;;;;5033186;28;20108;-75
2023/11/09 04:26:12;;;;;;;7.13;4.90;;;11.00;99.90;;;;;;5036181;28;20021;-76
2023/11/09 04:28:39;;;;;;;7.18;4.90;;;11.00;99.90;;;;;;5040970;28;20517;-75
2023/11/09 04:31:05;;;;;;;7.68;4.95;;;11.00;99.90;;;;;;5037157;28;20028;-76
2023/11/09 04:33:32;;;;;;;9.18;5.38;;;11.00;99.90;;;;;;5032778;28;20056;-76
2023/11/09 04:35:58;;;;;;;8.60;5.07;;;11.00;99.90;;;;;;5039591;28;20040;-76
2023/11/09 04:38:24;;;;;;;7.88;5.30;;;11.00;99.90;;;;;;5039539;28;20024;-76
2023/11/09 04:41:13;;;;;;;6.20;4.72;;;11.10;99.90;;;;;;5033290;28;20036;-76
2023/11/09 04:43:37;;;;;;;8.82;5.82;;;11.10;99.90;;;;;;5031585;28;20033;-76
2023/11/09 04:46:10;;;;;;;8.43;5.50;;;11.10;99.90;;;;;;5027361;28;20048;-76
2023/11/09 04:48:44;;;;;;;8.32;5.25;;;11.10;99.90;;;;;;5039348;28;20087;-76
2023/11/09 04:51:26;;;;;;;7.97;5.40;;;11.10;99.90;;;;;;5021210;28;20021;-76
2023/11/09 04:53:52;;;;;;;8.25;5.30;;;11.10;99.90;;;;;;5032422;28;20029;-75
2023/11/09 05:07:35;;;;;;;7.80;5.70;;;11.20;99.90;;;;;;4972686;28;20492;-76
2023/11/09 05:10:02;;;;;;;8.75;6.13;;;11.20;99.90;;;;;;4978833;28;20132;-76
2023/11/09 05:12:28;;;;;;;9.15;6.07;;;11.20;99.90;;;;;;4975649;28;20671;-75
2023/11/09 05:14:54;;;;;;;9.57;6.32;;;11.20;99.90;;;;;;4971057;28;20077;-75
2023/11/09 05:17:20;;;;;;;9.52;6.20;;;11.30;99.90;;;;;;4976463;28;20133;-75
2023/11/09 05:19:46;;;;;;;10.52;6.22;;;11.30;99.90;;;;;;4978886;28;20491;-76
2023/11/09 05:22:12;;;;;;;10.68;6.75;;;11.30;99.90;;;;;;4955580;28;20107;-76
2023/11/09 05:24:40;;;;;;;10.90;7.20;;;11.30;99.90;;;;;;4972233;28;20651;-76
2023/11/09 05:27:07;;;;;;;12.43;6.78;;;11.30;99.90;;;;;;4970093;28;20023;-76
2023/11/09 05:29:33;;;;;;;11.40;7.10;;;11.30;99.90;;;;;;4973716;28;20043;-76
2023/11/09 05:32:01;;;;;;;9.30;6.57;;;11.30;99.90;;;;;;4962879;28;20436;-76
2023/11/09 05:34:26;;;;;;;11.10;7.43;;;11.40;99.90;;;;;;4974117;28;20026;-76
2023/11/09 05:36:53;;;;;;;10.15;7.50;;;11.40;99.90;;;;;;4971037;28;20046;-76
2023/11/09 05:39:19;;;;;;;10.60;7.43;;;11.40;99.90;;;;;;4977055;28;20031;-76
2023/11/09 05:41:45;;;;;;;11.57;7.70;;;11.40;99.90;;;;;;4978490;28;20126;-76
2023/11/09 05:44:11;;;;;;;10.68;8.65;;;11.40;99.90;;;;;;4990819;28;20517;-75
2023/11/09 05:46:36;;;;;;;14.15;7.53;;;11.30;99.90;;;;;;5034843;28;20026;-76
2023/11/09 05:49:03;;;;;;;10.20;7.90;;;11.30;99.90;;;;;;5038747;28;20025;-76
2023/11/09 05:51:31;;;;;;;11.85;8.60;;;11.30;99.90;;;;;;5036184;28;20009;-76
2023/11/09 05:53:57;;;;;;;9.43;7.28;;;11.30;99.90;;;;;;5031965;28;20018;-76
2023/11/09 05:56:23;;;;;;;9.93;6.95;;;11.30;99.90;;;;;;5038587;28;20079;-76
2023/11/09 05:58:49;;;;;;;8.95;6.68;;;11.30;99.90;;;;;;5039967;28;20067;-76
2023/11/09 06:01:15;;;;;;;11.02;6.25;;;11.30;99.90;;;;;;5030408;28;20058;-77
2023/11/09 06:03:42;;;;;;;9.75;5.53;;;11.20;99.90;;;;;;5036321;28;20033;-76
2023/11/09 06:06:07;;;;;;;8.90;5.30;;;11.20;99.90;;;;;;5036084;28;20498;-75
2023/11/09 06:08:36;;;;;;;9.32;5.00;;;11.10;99.90;;;;;;5043208;28;20026;-76
2023/11/09 06:11:03;;;;;;;12.07;4.82;;;11.10;99.90;;;;;;5042734;28;20045;-77
2023/11/09 06:13:29;;;;;;;8.10;4.40;;;11.10;99.90;;;;;;5035618;28;20017;-76
2023/11/09 06:15:55;;;;;;;9.40;4.50;;;11.00;99.90;;;;;;5039452;28;20033;-76
2023/11/09 06:18:21;;;;;;;10.27;4.40;;;11.00;99.90;;;;;;5043500;28;20029;-76
2023/11/09 06:20:48;;;;;;;8.40;4.18;;;11.00;99.90;;;;;;5039000;28;20036;-76
2023/11/09 06:23:15;;;;;;;10.38;4.13;;;10.90;99.90;;;;;;5035698;28;20025;-76
2023/11/09 06:25:44;;;;;;;8.65;4.18;;;10.90;99.90;;;;;;5038198;28;20040;-76
2023/11/09 06:28:10;;;;;;;11.75;4.63;;;10.90;99.90;;;;;;5034232;28;20495;-77
2023/11/09 06:30:37;;;;;;;9.38;4.25;;;10.90;99.90;;;;;;5043540;28;20619;-76
2023/11/09 06:33:04;;;;;;;9.93;4.47;;;10.80;99.90;;;;;;5041380;28;20482;-76
2023/11/09 06:35:30;;;;;;;12.30;4.55;;;10.80;99.90;;;;;;5034067;28;20021;-77
2023/11/09 06:37:55;;;;;;;8.48;4.82;;;10.70;99.90;;;;;;5037954;28;20029;-76
2023/11/09 06:40:21;;;;;;;10.57;4.35;;;10.70;99.90;;;;;;5043144;28;20478;-76
2023/11/09 06:42:49;;;;;;;15.02;4.75;;;10.70;99.90;;;;;;5029101;28;20075;-76
2023/11/09 06:45:16;;;;;;;8.43;4.90;;;10.70;99.90;;;;;;5042381;28;20029;-76
2023/11/09 06:47:42;;;;;;;11.85;4.90;;;10.60;99.90;;;;;;5039869;28;20106;-77
2023/11/09 06:50:12;;;;;;;11.35;5.03;;;10.60;99.90;;;;;;5036834;28;20061;-77
2023/11/09 06:52:44;;;;;;;9.37;4.97;;;10.60;99.90;;;;;;5043294;28;20790;-76
2023/11/09 06:55:15;;;;;;;12.45;5.03;;;10.60;99.90;;;;;;5040885;28;20024;-76
2023/11/09 06:57:42;;;;;;;16.65;5.68;;;10.50;99.90;;;;;;5033611;28;20150;-76
2023/11/09 07:00:12;;;;;;;9.75;4.97;;;10.50;99.90;;;;;;5037781;28;20021;-76
2023/11/09 07:02:47;;;;;;;10.43;5.15;;;10.60;99.90;;;;;;5041373;28;20494;-76
2023/11/09 07:05:13;;;;;;;11.52;5.60;;;10.50;99.90;;;;;;5029553;28;20072;-77
2023/11/09 07:07:39;;;;;;;12.95;5.35;;;10.50;99.90;;;;;;5035979;28;20075;-78
2023/11/09 07:10:05;;;;;;;13.85;5.72;;;10.50;99.90;;;;;;5041594;28;20498;-77
2023/11/09 07:12:31;;;;;;;11.00;5.30;;;10.60;99.90;;;;;;5025676;28;20064;-77
2023/11/09 07:14:57;;;;;;;13.10;5.80;;;10.60;99.90;;;;;;5041507;28;20041;-77
2023/11/09 07:17:22;;;;;;;11.98;4.95;;;10.60;99.90;;;;;;5038132;28;20044;-76
2023/11/09 07:19:49;;;;;;;14.02;5.80;;;10.60;99.90;;;;;;5036558;28;20026;-77
2023/11/09 07:22:16;;;;;;;11.43;4.80;;;10.60;99.90;;;;;;5041681;28;20407;-77
2023/11/09 07:24:43;;;;;;;11.18;5.40;;;10.60;99.90;;;;;;5042336;28;20043;-76
2023/11/09 07:27:09;;;;;;;12.30;5.57;;;10.60;99.90;;;;;;5034823;28;20017;-77
2023/11/09 07:29:39;;;;;;;10.73;5.22;;;10.60;99.90;;;;;;5036727;28;20128;-77
2023/11/09 07:32:05;;;;;;;13.75;5.38;;;10.60;99.90;;;;;;5042656;28;20426;-78
2023/11/09 07:34:31;;;;;;;10.68;5.15;;;10.60;99.90;;;;;;5038358;28;20029;-78
2023/11/09 07:36:58;;;;;;;11.13;5.00;;;10.60;99.90;;;;;;5034432;28;20021;-77
2023/11/09 07:39:27;;;;;;;10.43;4.82;;;10.60;99.90;;;;;;5039763;28;20025;-77
2023/11/09 07:42:00;;;;;;;10.68;4.88;;;10.60;99.90;;;;;;5037532;28;20037;-77
2023/11/09 07:44:27;;;;;;;10.68;4.70;;;10.60;99.90;;;;;;5027852;28;20029;-77
2023/11/09 07:46:54;;;;;;;13.48;6.38;;;10.60;99.90;;;;;;5042598;28;20112;-77
2023/11/09 07:49:20;;;;;;;10.02;5.60;;;10.60;99.90;;;;;;5029504;28;20029;-77
2023/11/09 07:51:46;;;;;;;10.40;5.10;;;10.60;99.90;;;;;;5035549;28;20056;-78
2023/11/09 07:54:12;;;;;;;16.85;5.93;;;10.60;99.90;;;;;;5031622;28;20044;-77
2023/11/09 07:56:38;;;;;;;16.35;6.30;;;10.60;99.90;;;;;;5038209;28;20423;-78
2023/11/09 07:59:04;;;;;;;14.63;6.50;;;10.60;99.90;;;;;;5029962;28;20491;-77
2023/11/09 08:01:30;;;;;;;16.13;7.35;;;10.60;99.90;;;;;;5045009;28;20029;-77
2023/11/09 08:03:57;;;;;;;16.63;7.07;;;10.60;99.90;;;;;;5037222;28;20372;-78
2023/11/09 08:06:22;;;;;;;15.75;7.22;;;10.60;99.90;;;;;;5041608;28;20060;-78
2023/11/09 08:08:51;;;;;;;16.35;8.00;;;10.70;99.90;;;;;;5027083;28;20083;-78
2023/11/09 08:11:17;;;;;;;18.92;8.00;;;10.70;99.90;;;;;;5040076;28;20049;-78
2023/11/09 08:13:42;;;;;;;19.83;8.70;;;10.70;99.90;;;;;;5026811;28;20064;-78
2023/11/09 08:16:08;;;;;;;16.20;8.10;;;10.70;99.90;;;;;;5029897;28;20029;-78
2023/11/09 08:18:34;;;;;;;16.50;8.45;;;10.70;99.90;;;;;;5028259;28;20026;-78
2023/11/09 08:21:03;;;;;;;18.30;9.20;;;10.70;99.90;;;;;;5023073;28;20491;-78
2023/11/09 08:23:31;;;;;;;17.30;8.82;;;10.60;99.90;;;;;;5031737;28;20768;-78
2023/11/09 08:25:57;;;;;;;17.50;8.88;;;10.60;99.90;;;;;;5036199;28;20051;-77
2023/11/09 08:28:24;;;;;;;17.00;9.50;;;10.60;99.90;;;;;;5039046;28;20498;-78
2023/11/09 08:30:51;;;;;;;18.83;9.57;;;10.60;99.90;;;;;;5032651;28;20017;-78
2023/11/09 08:33:21;;;;;;;21.50;10.00;;;10.60;99.90;;;;;;5030162;28;20498;-78
2023/11/09 08:35:49;;;;;;;17.17;9.97;;;10.60;99.90;;;;;;5018888;28;20021;-79
2023/11/09 08:38:15;;;;;;;20.95;10.77;;;10.60;99.90;;;;;;5033080;28;20025;-78
2023/11/09 08:40:42;;;;;;;20.00;9.48;;;10.60;99.90;;;;;;5040970;28;20407;-78
2023/11/09 08:43:10;;;;;;;18.17;9.88;;;10.60;99.90;;;;;;5026820;28;20038;-80
2023/11/09 08:45:36;;;;;;;20.98;10.90;;;10.60;99.90;;;;;;5023148;28;20495;-79
2023/11/09 08:48:02;;;;;;;22.83;11.20;;;10.60;99.90;;;;;;5029586;28;20152;-79
2023/11/09 08:50:28;;;;;;;18.98;11.40;;;10.60;99.90;;;;;;5029528;28;20467;-80
2023/11/09 08:53:09;;;;;;;20.13;11.10;;;10.60;99.90;;;;;;5039638;28;20033;-80
2023/11/09 08:55:35;;;;;;;19.85;11.75;;;10.60;99.90;;;;;;5033809;28;20021;-79
2023/11/09 08:58:01;;;;;;;25.10;12.18;;;10.60;99.90;;;;;;5036666;28;20037;-79
2023/11/09 09:00:28;;;;;;;25.17;13.48;;;10.60;99.90;;;;;;5024747;28;20438;-81
2023/11/09 09:02:54;;;;;;;22.83;12.80;;;10.60;99.90;;;;;;5031834;28;20422;-80
2023/11/09 09:05:23;;;;;;;20.25;11.95;;;10.60;99.90;;;;;;5036039;28;20021;-80
2023/11/09 09:07:53;;;;;;;23.23;12.75;;;10.60;99.90;;;;;;5031442;28;20060;-80
2023/11/09 09:10:22;;;;;;;25.38;12.88;;;10.60;99.90;;;;;;5031969;28;20077;-80
2023/11/09 09:12:51;;;;;;;20.42;12.20;;;10.60;99.90;;;;;;5028633;28;20433;-81
2023/11/09 09:15:20;;;;;;;24.00;13.15;;;10.70;99.90;;;;;;5026965;28;20022;-80
2023/11/09 09:17:47;;;;;;;25.55;12.48;;;10.70;99.90;;;;;;5037731;28;20024;-79
2023/11/09 09:20:15;;;;;;;29.23;13.68;;;10.70;99.90;;;;;;5042758;28;20402;-79
2023/11/09 09:22:46;;;;;;;23.95;14.10;;;10.70;99.90;;;;;;5042142;28;20502;-80
2023/11/09 09:25:12;;;;;;;25.92;13.23;;;10.70;99.90;;;;;;5039538;28;20030;-80
2023/11/09 09:27:43;;;;;;;26.38;13.75;;;10.70;99.90;;;;;;5038203;28;20021;-81
2023/11/09 09:30:17;;;;;;;25.10;13.77;;;10.70;99.90;;;;;;5035061;28;20014;-80
2023/11/09 09:32:44;;;;;;;28.60;14.15;;;10.70;99.90;;;;;;5034799;28;20033;-82
2023/11/09 09:35:11;;;;;;;28.67;14.15;;;10.70;99.90;;;;;;5032962;28;20057;-81
2023/11/09 09:37:41;;;;;;;26.48;15.57;;;10.80;99.90;;;;;;5032114;28;20024;-79
2023/11/09 09:40:22;;;;;;;28.20;15.40;;;10.70;99.90;;;;;;5032317;28;20056;-81
2023/11/09 09:42:50;;;;;;;30.55;16.02;;;10.70;99.90;;;;;;5019286;28;20030;-81
2023/11/09 09:45:26;;;;;;;30.25;17.50;;;10.70;99.90;;;;;;5043433;28;20036;-80
2023/11/09 09:47:54;;;;;;;33.67;16.67;;;10.70;99.90;;;;;;5040273;28;20030;-79
2023/11/09 09:50:23;;;;;;;33.88;17.35;;;10.80;99.90;;;;;;5025294;28;20026;-78
2023/11/09 09:52:55;;;;;;;37.35;17.05;;;10.80;99.90;;;;;;5027571;28;20159;-78
2023/11/09 09:55:24;;;;;;;26.45;14.82;;;10.80;99.90;;;;;;5027422;28;20021;-78
2023/11/09 09:57:50;;;;;;;29.48;15.25;;;10.90;99.90;;;;;;5047044;28;20032;-78
2023/11/09 10:00:24;;;;;;;32.35;14.85;;;10.90;99.90;;;;;;5035797;28;20080;-79
2023/11/09 10:02:51;;;;;;;33.20;16.65;;;11.00;99.90;;;;;;5047860;28;20397;-79
2023/11/09 10:05:17;;;;;;;28.60;15.35;;;11.10;99.90;;;;;;5046280;28;20020;-79
2023/11/09 10:08:12;;;;;;;25.48;15.98;;;11.20;99.90;;;;;;5042986;28;20037;-78
2023/11/09 10:10:55;;;;;;;34.80;17.15;;;11.20;99.90;;;;;;5021671;28;20072;-79
2023/11/09 10:13:24;;;;;;;29.42;16.30;;;11.30;99.90;;;;;;5041807;28;20048;-79
2023/11/09 10:15:58;;;;;;;28.38;16.10;;;11.30;99.90;;;;;;5039138;28;20106;-79
2023/11/09 10:18:30;;;;;;;25.35;15.00;;;11.30;99.90;;;;;;5037076;28;20025;-78
2023/11/09 10:20:57;;;;;;;26.52;13.85;;;11.30;99.90;;;;;;5022976;28;20589;-80
2023/11/09 10:23:25;;;;;;;24.33;14.38;;;11.20;99.90;;;;;;5040857;28;20021;-80
2023/11/09 10:25:52;;;;;;;36.08;16.27;;;11.30;99.90;;;;;;5035212;28;20026;-79
2023/11/09 10:28:20;;;;;;;26.55;13.55;;;11.30;99.90;;;;;;5037154;28;20482;-79
2023/11/09 10:30:48;;;;;;;29.58;14.65;;;11.30;99.90;;;;;;5040049;28;20033;-80
2023/11/09 10:33:17;;;;;;;26.88;12.68;;;11.40;99.90;;;;;;5030010;28;20060;-80
2023/11/09 10:35:47;;;;;;;27.98;13.40;;;11.40;99.90;;;;;;5031991;28;20025;-79
2023/11/09 10:38:20;;;;;;;24.38;12.40;;;11.50;99.90;;;;;;5029912;28;20025;-80
2023/11/09 10:40:47;;;;;;;32.20;12.68;;;11.50;99.90;;;;;;5037456;28;20025;-82
2023/11/09 10:43:14;;;;;;;21.40;11.45;;;11.50;99.90;;;;;;5038214;28;20082;-80
2023/11/09 10:45:44;;;;;;;24.92;11.32;;;11.60;99.90;;;;;;5031945;28;20057;-78
2023/11/09 10:48:17;;;;;;;22.52;11.55;;;11.60;99.90;;;;;;5038666;28;20390;-80
2023/11/09 10:50:47;;;;;;;22.30;10.52;;;11.50;99.90;;;;;;5023676;28;20051;-79
2023/11/09 10:53:15;;;;;;;22.58;10.38;;;11.50;99.90;;;;;;5037089;28;20477;-80
2023/11/09 10:55:44;;;;;;;27.45;10.15;;;11.60;99.90;;;;;;5031177;28;20048;-79
2023/11/09 10:58:12;;;;;;;21.02;8.45;;;11.60;99.90;;;;;;5040886;28;20025;-80
2023/11/09 11:00:42;;;;;;;19.02;8.40;;;11.70;99.90;;;;;;5041569;28;20181;-79
2023/11/09 11:03:16;;;;;;;22.58;8.73;;;11.70;99.90;;;;;;5042033;28;20029;-80
2023/11/09 11:05:47;;;;;;;20.08;7.55;;;11.70;99.90;;;;;;5039773;28;20033;-79
2023/11/09 11:08:22;;;;;;;20.88;8.18;;;11.70;99.90;;;;;;5035170;28;20024;-79
2023/11/09 11:10:51;;;;;;;19.83;6.97;;;11.70;99.90;;;;;;5035810;28;20132;-80
2023/11/09 11:13:19;;;;;;;19.25;6.72;;;11.80;99.90;;;;;;5032093;28;20427;-80
2023/11/09 11:16:10;;;;;;;16.38;5.95;;;11.80;99.90;;;;;;5030269;28;20017;-79
2023/11/09 11:18:54;;;;;;;18.98;6.55;;;11.90;99.90;;;;;;5029411;28;20038;-78
2023/11/09 11:21:23;;;;;;;17.55;5.65;;;12.00;99.90;;;;;;5028454;28;20132;-80
2023/11/09 11:24:27;;;;;;;19.60;6.57;;;12.10;99.90;;;;;;5022454;28;20086;-80
2023/11/09 11:27:02;;;;;;;16.00;5.13;;;12.20;99.90;;;;;;5038178;28;20112;-82
2023/11/09 11:29:29;;;;;;;15.23;4.40;;;12.20;99.90;;;;;;5037246;28;20564;-83
2023/11/09 11:31:56;;;;;;;17.25;4.95;;;12.20;99.90;;;;;;5043654;28;20013;-81
2023/11/09 11:35:00;;;;;;;12.45;4.22;;;12.20;99.90;;;;;;5032260;28;20028;-83
2023/11/09 11:37:30;;;;;;;16.10;4.18;;;12.10;99.90;;;;;;5028919;28;20491;-82
2023/11/09 11:39:56;;;;;;;15.02;3.80;;;12.00;99.90;;;;;;5017217;28;20483;-83
2023/11/09 11:42:25;;;;;;;13.75;3.80;;;12.00;99.90;;;;;;5044945;28;20017;-83
2023/11/09 11:44:54;;;;;;;18.38;4.28;;;12.10;99.90;;;;;;5047776;28;20123;-85
2023/11/09 11:47:23;;;;;;;16.30;3.90;;;12.10;99.90;;;;;;5033240;28;20498;-83
2023/11/09 11:49:56;;;;;;;14.13;3.90;;;12.10;99.90;;;;;;5032142;28;20025;-81
2023/11/09 11:52:23;;;;;;;17.27;3.85;;;12.10;99.90;;;;;;5040169;28;20425;-82
2023/11/09 11:54:51;;;;;;;13.20;3.80;;;12.10;99.90;;;;;;5033130;28;20053;-82
2023/11/09 11:57:18;;;;;;;15.07;4.18;;;12.10;99.90;;;;;;5035778;28;20021;-82
2023/11/09 12:00:02;;;;;;;13.40;3.35;;;12.10;99.90;;;;;;5034790;28;20044;-83
2023/11/09 12:02:28;;;;;;;12.73;3.10;;;12.10;99.90;;;;;;5039532;28;20124;-82
2023/11/09 12:04:58;;;;;;;13.27;2.75;;;12.20;99.90;;;;;;5039005;28;20113;-83
2023/11/09 12:07:25;;;;;;;11.18;2.60;;;12.20;99.90;;;;;;5020435;28;20022;-82
2023/11/09 12:09:55;;;;;;;14.30;2.67;;;12.30;99.90;;;;;;5023634;28;20033;-81
2023/11/09 12:12:26;;;;;;;12.63;3.25;;;12.30;99.90;;;;;;5028601;28;20117;-83
2023/11/09 12:14:53;;;;;;;;;;;12.20;99.90;;;;;;5033050;28;20105;-84
2023/11/09 12:17:19;;;;;;;13.07;2.38;;;12.20;99.90;;;;;;5043565;28;19962;-80
2023/11/09 12:19:45;;;;;;;15.70;2.88;;;12.10;99.90;;;;;;5033266;28;20432;-82
2023/11/09 12:22:11;;;;;;;19.67;3.45;;;12.00;99.90;;;;;;5028005;28;20112;-81
2023/11/09 12:24:37;;;;;;;13.80;2.78;;;12.00;99.90;;;;;;5023923;28;20152;-84
2023/11/09 12:27:08;;;;;;;14.38;3.60;;;12.00;99.90;;;;;;5024102;28;20091;-82
2023/11/09 12:29:40;;;;;;;13.30;2.60;;;12.00;99.90;;;;;;5029950;28;20031;-80
2023/11/09 12:32:07;;;;;;;10.10;2.67;;;11.90;99.90;;;;;;5041192;28;20929;-80
2023/11/09 12:34:35;;;;;;;11.75;2.40;;;11.90;99.90;;;;;;5036149;28;20028;-80
2023/11/09 12:37:01;;;;;;;13.85;2.70;;;12.00;99.90;;;;;;5027407;28;20887;-80
2023/11/09 12:39:30;;;;;;;18.90;3.10;;;12.00;99.90;;;;;;5023101;28;20106;-80
2023/11/09 12:42:00;;;;;;;11.65;2.40;;;12.10;99.90;;;;;;5040607;28;20544;-82
2023/11/09 12:44:35;;;;;;;10.88;3.13;;;12.20;99.90;;;;;;5034628;28;20398;-80
2023/11/09 12:47:07;;;;;;;12.95;2.92;;;12.20;99.90;;;;;;5032393;28;20095;-81
2023/11/09 12:49:34;;;;;;;16.85;3.13;;;12.20;99.90;;;;;;5039918;28;20034;-83
2023/11/09 12:52:05;;;;;;;18.25;2.78;;;12.30;99.90;;;;;;5026483;28;20036;-80
2023/11/09 12:54:31;;;;;;;11.18;2.45;;;12.30;99.90;;;;;;5025408;28;20036;-82